Skip Navigation Links Skip Navigation Links

Current Weather

Cable, Upland, Calif.

For information only: do not use for flight planning or navigation.
Latest weather
Observation time Tuesday, October 19, 2021 2:15 AM PDT
Local time Tuesday, October 19, 2021 2:37 AM PDT
Flight conditions Visual Meteorological Conditions
Winds
Wind direction North (360°)
Wind speed 3 mph
Visibility 10 mi.
Sky condition
Ceiling unlimited
Sky clear
Temperature 50°F
Dewpoint 43°F
Altimeter 29.99 in.Hg
Derived measurements
Relative humidity 76%
Wind chill 49°F
Density altitude 898 ft.
Remarks
Fully automated report.
Automated weather observing station with precipitation discriminator.
METAR KCCB 190915Z AUTO 36003KT 10SM CLR 10/06 A2999 RMK AO2

Settings

Location code

InnerDrive.Weather 4.0.6770.0 Release CLR 4.0.30319.42000
Copyright ©2018 Inner Drive Technology. All rights reserved. Portions Copyright ©1986-2018 David Braverman.

Find weather

Site navigation


Skip Navigation Links

Place info

Page info

PayPal - The safer, easier way to pay online!

Return home.

Copyright ©2021 Inner Drive Technology. Purveyors of fine, hand-crafted computer software. Page printed 2021-10-19T09:37:57 UTC.